Time;durP1;ratioP1;P1;durP2;ratioP2;P2;SDS_P1;SDS_P2;PMS_P1;PMS_P2;Temp;Humidity;BMP_temperature;BMP_pressure;BME280_temperature;BME280_humidity;BME280_pressure;Samples;Min_cycle;Max_cycle;Signal;HPM_P1;HPM_P2
2021/05/19 03:02:51;;;;;;;12.93;11.63;;;;;;;14.03;100.00;99267.45;1720449;81;21021;-69
2021/05/19 03:05:18;;;;;;;13.27;11.10;;;;;;;14.03;100.00;99269.28;1737090;80;21133;-68
2021/05/19 03:07:45;;;;;;;10.93;9.83;;;;;;;14.04;100.00;99272.97;1737645;80;21002;-67
2021/05/19 03:10:13;;;;;;;12.90;9.87;;;;;;;14.04;100.00;99275.59;1733419;80;21639;-68
2021/05/19 03:12:40;;;;;;;13.03;11.60;;;;;;;14.06;100.00;99272.75;1741146;80;21058;-69
2021/05/19 03:15:09;;;;;;;14.00;12.50;;;;;;;14.07;100.00;99275.13;1740478;80;21585;-69
2021/05/19 03:17:36;;;;;;;11.97;10.43;;;;;;;14.09;100.00;99278.34;1739594;80;21545;-69
2021/05/19 03:20:04;;;;;;;13.73;10.43;;;;;;;14.14;100.00;99279.47;1730560;80;21097;-68
2021/05/19 03:22:31;;;;;;;13.70;11.67;;;;;;;14.17;100.00;99282.43;1741257;80;21008;-68
2021/05/19 03:24:57;;;;;;;16.50;13.03;;;;;;;14.18;100.00;99284.02;1740320;80;20971;-70
2021/05/19 03:27:24;;;;;;;13.00;11.63;;;;;;;14.18;100.00;99290.56;1740044;80;21069;-69
2021/05/19 03:29:51;;;;;;;12.23;10.40;;;;;;;14.16;100.00;99289.98;1739811;80;21347;-68
2021/05/19 03:32:17;;;;;;;11.33;9.83;;;;;;;14.13;100.00;99290.47;1741063;80;20963;-69
2021/05/19 03:34:44;;;;;;;16.33;12.50;;;;;;;14.11;100.00;99293.30;1740998;80;21079;-68
2021/05/19 03:37:11;;;;;;;15.00;12.33;;;;;;;14.06;100.00;99292.41;1741325;80;20891;-69
2021/05/19 03:39:38;;;;;;;12.73;11.30;;;;;;;14.01;100.00;99294.38;1740943;80;21525;-69
2021/05/19 03:42:05;;;;;;;12.30;10.60;;;;;;;14.00;100.00;99290.17;1741079;80;21093;-68
2021/05/19 03:44:33;;;;;;;12.93;10.33;;;;;;;14.02;100.00;99297.83;1741812;80;21442;-68
2021/05/19 03:47:01;;;;;;;12.93;11.60;;;;;;;14.01;100.00;99295.69;1740945;80;20972;-69
2021/05/19 03:49:31;;;;;;;14.87;13.30;;;;;;;13.99;100.00;99296.45;1739796;80;20951;-70
2021/05/19 03:51:57;;;;;;;13.90;12.30;;;;;;;13.96;100.00;99294.80;1740312;80;21352;-69
2021/05/19 03:54:23;;;;;;;17.47;11.83;;;;;;;13.93;100.00;99296.04;1737550;80;21094;-68
2021/05/19 03:56:50;;;;;;;15.63;10.87;;;;;;;13.94;100.00;99295.52;1739307;80;21036;-68
2021/05/19 03:59:17;;;;;;;13.03;11.67;;;;;;;13.97;100.00;99293.25;1741783;80;20979;-70
2021/05/19 04:01:43;;;;;;;14.27;11.50;;;;;;;13.98;100.00;99301.41;1736594;80;21103;-68
2021/05/19 04:04:10;;;;;;;12.40;11.00;;;;;;;13.99;100.00;99301.69;1746302;80;21051;-68
2021/05/19 04:06:37;;;;;;;10.80;8.97;;;;;;;13.99;100.00;99303.52;1740618;80;21588;-68
2021/05/19 04:09:06;;;;;;;10.67;9.53;;;;;;;13.99;100.00;99299.06;1746700;80;20983;-68
2021/05/19 04:11:33;;;;;;;10.03;8.43;;;;;;;14.01;100.00;99304.06;1752082;80;21025;-69
2021/05/19 04:13:59;;;;;;;8.70;7.23;;;;;;;14.03;100.00;99304.14;1735464;80;21023;-69
2021/05/19 04:16:26;;;;;;;10.63;7.77;;;;;;;14.03;100.00;99295.48;1746756;80;21050;-69
2021/05/19 04:18:53;;;;;;;8.07;6.07;;;;;;;14.01;100.00;99298.31;1747081;80;21099;-68
2021/05/19 04:21:20;;;;;;;9.67;5.57;;;;;;;14.03;100.00;99302.03;1744668;80;21054;-69
2021/05/19 04:23:47;;;;;;;8.27;6.87;;;;;;;14.04;100.00;99304.93;1748212;80;21004;-67
2021/05/19 04:26:15;;;;;;;7.67;6.63;;;;;;;14.04;100.00;99311.48;1777834;79;21002;-69
2021/05/19 04:28:48;;;;;;;8.53;5.90;;;;;;;14.03;100.00;99309.89;1780331;79;20955;-68
2021/05/19 04:31:12;;;;;;;7.47;4.90;;;;;;;14.02;100.00;99312.23;1777596;79;21146;-69
2021/05/19 04:33:39;;;;;;;7.47;4.60;;;;;;;14.01;100.00;99313.23;1751507;80;21089;-66
2021/05/19 04:36:06;;;;;;;6.13;4.30;;;;;;;14.03;100.00;99311.20;1732745;81;20971;-69
2021/05/19 04:38:34;;;;;;;6.10;4.43;;;;;;;14.03;100.00;99309.89;1732642;80;20923;-70
2021/05/19 04:41:00;;;;;;;6.47;4.50;;;;;;;14.02;100.00;99308.30;1732650;80;21078;-70
2021/05/19 04:43:27;;;;;;;4.80;3.50;;;;;;;14.01;100.00;99314.03;1728636;80;21118;-69
2021/05/19 04:45:54;;;;;;;4.43;3.30;;;;;;;14.04;100.00;99315.41;1739577;79;21533;-69
2021/05/19 04:48:21;;;;;;;5.13;4.00;;;;;;;14.05;100.00;99314.37;1778641;79;21090;-69
2021/05/19 04:50:48;;;;;;;6.30;3.90;;;;;;;14.05;100.00;99312.58;1781777;78;21085;-69
2021/05/19 04:53:15;;;;;;;4.77;3.00;;;;;;;14.08;100.00;99308.69;1775434;78;21591;-69
2021/05/19 04:55:41;;;;;;;5.63;3.30;;;;;;;14.12;100.00;99311.12;1786586;78;22351;-69
2021/05/19 04:58:08;;;;;;;5.10;3.13;;;;;;;14.11;100.00;99312.95;1745771;80;21609;-67
2021/05/19 05:00:37;;;;;;;4.77;3.13;;;;;;;14.11;100.00;99308.23;1752109;80;21082;-67
2021/05/19 05:03:08;;;;;;;5.93;3.60;;;;;;;14.09;100.00;99314.20;1775341;79;21474;-68
2021/05/19 05:05:36;;;;;;;5.57;3.27;;;;;;;14.09;100.00;99315.52;1771411;79;21038;-69
2021/05/19 05:08:04;;;;;;;5.63;4.47;;;;;;;14.09;100.00;99320.27;1773511;79;21401;-68
2021/05/19 05:10:31;;;;;;;5.80;4.47;;;;;;;14.13;100.00;99324.54;1769946;79;20936;-69
2021/05/19 05:12:57;;;;;;;5.93;3.57;;;;;;;14.16;100.00;99320.64;1766762;79;21040;-68
2021/05/19 05:15:24;;;;;;;4.57;3.50;;;;;;;14.18;100.00;99316.77;1728969;81;21523;-69
2021/05/19 05:17:51;;;;;;;6.67;4.50;;;;;;;14.20;100.00;99317.84;1752157;80;21069;-70
2021/05/19 05:20:18;;;;;;;6.27;4.77;;;;;;;14.20;100.00;99324.40;1775954;79;21034;-67
2021/05/19 05:22:46;;;;;;;6.57;5.20;;;;;;;14.18;100.00;99336.44;1772656;79;21001;-68
2021/05/19 05:25:14;;;;;;;7.10;5.90;;;;;;;14.16;100.00;99338.98;1777250;79;20873;-67
2021/05/19 05:27:42;;;;;;;9.97;6.93;;;;;;;14.14;100.00;99353.64;1779655;79;21011;-69
2021/05/19 05:30:10;;;;;;;7.67;4.70;;;;;;;14.12;100.00;99360.41;1769859;79;21405;-67
2021/05/19 05:32:36;;;;;;;6.67;5.23;;;;;;;14.13;100.00;99367.78;1778331;79;21980;-68
2021/05/19 05:35:04;;;;;;;5.40;4.33;;;;;;;14.14;100.00;99375.13;1777857;79;20952;-68
2021/05/19 05:37:30;;;;;;;5.77;4.20;;;;;;;14.11;100.00;99375.85;1776857;79;21069;-69
2021/05/19 05:39:57;;;;;;;4.93;3.80;;;;;;;14.09;100.00;99381.02;1773496;79;21564;-69
2021/05/19 05:42:25;;;;;;;5.20;3.83;;;;;;;14.04;100.00;99376.47;1777167;79;22338;-68
2021/05/19 05:44:52;;;;;;;7.23;4.50;;;;;;;14.01;100.00;99382.67;1759908;79;21243;-67
2021/05/19 05:47:19;;;;;;;5.93;4.10;;;;;;;13.99;100.00;99379.50;1774525;79;20991;-69
2021/05/19 05:49:46;;;;;;;7.67;4.23;;;;;;;13.97;100.00;99380.22;1767381;79;21536;-68
2021/05/19 05:52:12;;;;;;;6.73;4.67;;;;;;;13.96;100.00;99379.43;1762820;79;20944;-67
2021/05/19 05:54:39;;;;;;;8.63;6.00;;;;;;;13.97;100.00;99378.91;1781937;79;21441;-68
2021/05/19 05:57:07;;;;;;;9.37;6.40;;;;;;;13.97;100.00;99380.22;1757857;80;21073;-67
2021/05/19 05:59:34;;;;;;;8.80;5.87;;;;;;;13.97;100.00;99383.64;1762621;79;21008;-69
2021/05/19 06:02:01;;;;;;;9.97;5.83;;;;;;;13.99;100.00;99387.36;1775961;79;21611;-70
2021/05/19 06:04:28;;;;;;;9.00;6.60;;;;;;;13.99;100.00;99384.23;1779553;78;21086;-69
2021/05/19 06:06:56;;;;;;;9.00;6.43;;;;;;;14.04;100.00;99384.84;1782946;78;20974;-69
2021/05/19 06:09:23;;;;;;;9.33;6.47;;;;;;;14.06;100.00;99389.37;1781724;78;21220;-70
2021/05/19 06:11:50;;;;;;;8.63;5.63;;;;;;;14.09;100.00;99395.44;1782790;78;21091;-69
2021/05/19 06:14:18;;;;;;;7.67;5.07;;;;;;;14.13;100.00;99399.23;1779598;78;20990;-69
2021/05/19 06:16:47;;;;;;;9.10;5.63;;;;;;;14.14;100.00;99400.81;1772405;79;21063;-69
2021/05/19 06:19:14;;;;;;;7.20;5.80;;;;;;;14.16;100.00;99405.30;1775880;78;20995;-69
2021/05/19 06:21:42;;;;;;;9.13;6.07;;;;;;;14.16;100.00;99396.65;1775454;78;20956;-69
2021/05/19 06:24:10;;;;;;;6.83;4.70;;;;;;;14.16;100.00;99390.89;1787957;78;21058;-70
2021/05/19 06:26:37;;;;;;;7.23;4.87;;;;;;;14.18;100.00;99384.92;1775535;78;21162;-70
2021/05/19 06:29:03;;;;;;;7.30;5.10;;;;;;;14.20;100.00;99378.92;1776799;78;21634;-69
2021/05/19 06:31:30;;;;;;;7.67;5.40;;;;;;;14.24;100.00;99368.78;1772649;78;21449;-70
2021/05/19 06:33:57;;;;;;;7.73;4.93;;;;;;;14.23;100.00;99356.19;1773993;78;21485;-70
2021/05/19 06:36:23;;;;;;;6.17;4.53;;;;;;;14.23;100.00;99348.33;1745646;79;22073;-70
2021/05/19 06:38:50;;;;;;;6.23;4.80;;;;;;;14.21;100.00;99348.30;1775823;79;20948;-70
2021/05/19 06:41:18;;;;;;;7.13;5.13;;;;;;;14.21;100.00;99353.02;1780237;79;21031;-69
2021/05/19 06:43:45;;;;;;;7.83;4.67;;;;;;;14.19;100.00;99355.06;1778409;77;20990;-70
2021/05/19 06:46:13;;;;;;;5.93;4.17;;;;;;;14.16;100.00;99356.02;1770092;78;21598;-71
2021/05/19 06:48:41;;;;;;;7.07;3.97;;;;;;;14.14;100.00;99363.33;1781398;78;21664;-70
2021/05/19 06:51:07;;;;;;;5.27;4.37;;;;;;;14.13;100.00;99366.47;1746676;80;21052;-69
2021/05/19 06:53:36;;;;;;;5.90;3.60;;;;;;;14.16;100.00;99369.13;1751087;80;21515;-70
2021/05/19 06:56:03;;;;;;;5.70;3.30;;;;;;;14.19;100.00;99369.98;1743455;80;21001;-70
2021/05/19 06:58:30;;;;;;;6.87;2.97;;;;;;;14.22;100.00;99372.95;1779768;78;21093;-69
2021/05/19 07:00:57;;;;;;;4.53;3.10;;;;;;;14.27;100.00;99379.61;1782562;78;21265;-70
2021/05/19 07:03:23;;;;;;;5.77;3.53;;;;;;;14.39;100.00;99384.84;1787581;78;21593;-69
2021/05/19 07:05:50;;;;;;;6.27;3.37;;;;;;;14.47;100.00;99385.84;1783023;78;20983;-69
2021/05/19 07:08:21;;;;;;;5.03;2.60;;;;;;;14.57;100.00;99395.76;1783297;78;22048;-69
2021/05/19 07:10:46;;;;;;;6.90;2.93;;;;;;;14.68;100.00;99388.39;1783802;78;21595;-69
2021/05/19 07:13:17;;;;;;;4.57;2.80;;;;;;;14.83;100.00;99390.02;1749824;79;42685;-69
2021/05/19 07:15:46;;;;;;;5.30;2.87;;;;;;;14.97;100.00;99383.20;1772341;78;20992;-70
2021/05/19 07:18:15;;;;;;;3.87;2.37;;;;;;;15.06;100.00;99382.59;1786494;78;22142;-69
2021/05/19 07:20:41;;;;;;;5.93;2.80;;;;;;;15.12;100.00;99378.77;1776438;78;20998;-70
2021/05/19 07:23:07;;;;;;;5.13;2.70;;;;;;;15.18;100.00;99383.85;1781128;78;21513;-69
2021/05/19 07:25:35;;;;;;;5.37;2.27;;;;;;;15.28;100.00;99382.73;1777573;78;21492;-70
2021/05/19 07:28:02;;;;;;;3.00;1.53;;;;;;;15.42;100.00;99374.55;1774282;78;21011;-69
2021/05/19 07:30:30;;;;;;;6.80;2.17;;;;;;;15.43;100.00;99361.73;1782438;78;21954;-70
2021/05/19 07:32:56;;;;;;;4.30;2.77;;;;;;;15.38;100.00;99356.37;1775370;78;21607;-69
2021/05/19 07:35:23;;;;;;;4.93;2.00;;;;;;;15.40;100.00;99347.23;1777657;78;21217;-69
2021/05/19 07:37:50;;;;;;;5.03;2.00;;;;;;;15.51;100.00;99342.95;1776227;78;20976;-71
2021/05/19 07:40:17;;;;;;;4.40;2.30;;;;;;;15.58;100.00;99323.89;1778304;78;21034;-70
2021/05/19 07:42:45;;;;;;;5.37;2.27;;;;;;;15.62;100.00;99319.75;1777415;78;21047;-72
2021/05/19 07:45:13;;;;;;;2.87;1.80;;;;;;;15.69;100.00;99318.32;1792056;78;21562;-73
2021/05/19 07:47:39;;;;;;;3.53;1.90;;;;;;;15.83;100.00;99323.51;1771683;79;21068;-75
2021/05/19 07:50:07;;;;;;;5.53;2.70;;;;;;;16.03;100.00;99329.08;1777042;79;21442;-69
2021/05/19 07:52:34;;;;;;;4.50;2.80;;;;;;;16.21;100.00;99337.23;1778239;78;21603;-71
2021/05/19 07:55:04;;;;;;;4.27;2.30;;;;;;;16.38;100.00;99340.33;1776031;79;21083;-71
2021/05/19 07:57:44;;;;;;;5.23;2.30;;;;;;;16.51;100.00;99345.22;1778326;78;21027;-73
2021/05/19 08:00:25;;;;;;;4.10;2.23;;;;;;;16.64;100.00;99358.55;1777336;78;21623;-72
2021/05/19 08:02:46;;;;;;;3.80;1.60;;;;;;;16.71;100.00;99358.64;1766722;78;21108;-71
2021/05/19 08:05:13;;;;;;;4.37;1.73;;;;;;;16.60;100.00;99359.56;1711471;82;21042;-70
2021/05/19 08:07:40;;;;;;;3.37;1.90;;;;;;;16.37;100.00;99361.10;1699919;82;21012;-73
2021/05/19 08:10:08;;;;;;;3.20;1.70;;;;;;;16.20;100.00;99367.16;1703333;81;21008;-70
2021/05/19 08:12:35;;;;;;;4.80;2.00;;;;;;;16.13;100.00;99374.42;1733811;81;21778;-75
2021/05/19 08:15:02;;;;;;;2.37;1.43;;;;;;;16.03;100.00;99369.83;1719040;81;21773;-73
2021/05/19 08:17:29;;;;;;;5.43;1.80;;;;;;;15.91;100.00;99371.75;1721734;81;21168;-74
2021/05/19 08:19:55;;;;;;;2.93;1.43;;;;;;;15.76;100.00;99362.31;1719049;81;21109;-69
2021/05/19 08:22:22;;;;;;;2.13;1.10;;;;;;;15.58;100.00;99361.98;1726644;81;21660;-71
2021/05/19 08:24:49;;;;;;;4.47;1.80;;;;;;;15.41;100.00;99369.03;1719811;81;21146;-68
2021/05/19 08:27:16;;;;;;;5.27;1.70;;;;;;;15.28;100.00;99373.55;1721139;81;22129;-69
2021/05/19 08:29:43;;;;;;;2.47;1.37;;;;;;;15.22;100.00;99375.79;1720604;81;21010;-70
2021/05/19 08:32:10;;;;;;;3.70;1.33;;;;;;;15.20;100.00;99375.77;1722539;81;21822;-69
2021/05/19 08:34:36;;;;;;;3.83;1.20;;;;;;;15.19;100.00;99368.89;1716994;81;21774;-72
2021/05/19 08:37:04;;;;;;;1.87;0.93;;;;;;;15.24;100.00;99363.76;1721753;81;21071;-70
2021/05/19 08:39:31;;;;;;;2.27;0.97;;;;;;;15.27;100.00;99363.29;1722347;81;21090;-70
2021/05/19 08:41:58;;;;;;;2.80;1.40;;;;;;;15.29;100.00;99355.96;1722682;81;21070;-70
2021/05/19 08:44:24;;;;;;;3.47;1.40;;;;;;;15.38;100.00;99358.50;1719683;81;20979;-70
2021/05/19 08:46:55;;;;;;;3.00;1.53;;;;;;;15.41;100.00;99354.06;1720357;81;21002;-70
2021/05/19 08:49:21;;;;;;;3.13;1.70;;;;;;;15.43;100.00;99361.73;1720573;81;21907;-73
2021/05/19 08:51:48;;;;;;;5.23;1.43;;;;;;;15.52;100.00;99360.30;1722418;81;21017;-69
2021/05/19 08:54:17;;;;;;;4.13;1.60;;;;;;;15.71;100.00;99362.22;1720670;81;21464;-72
2021/05/19 08:56:45;;;;;;;2.50;1.47;;;;;;;15.99;100.00;99365.30;1720175;81;21448;-73
2021/05/19 08:59:11;;;;;;;2.73;1.30;;;;;;;16.34;100.00;99354.48;1720117;81;21090;-74
2021/05/19 09:01:45;;;;;;;2.80;1.20;;;;;;;16.60;100.00;99350.88;1722880;81;22138;-74
2021/05/19 09:04:22;;;;;;;3.47;1.60;;;;;;;16.76;100.00;99344.25;1741138;79;20977;-70
2021/05/19 09:07:02;;;;;;;3.13;1.87;;;;;;;16.84;100.00;99331.70;1756877;79;22131;-69
2021/05/19 09:09:32;;;;;;;3.07;1.43;;;;;;;16.93;100.00;99333.66;1754978;79;20976;-75
2021/05/19 09:12:13;;;;;;;9.83;1.77;;;;;;;17.01;100.00;99312.69;1754631;79;21013;-71
2021/05/19 09:15:03;;;;;;;2.23;1.10;;;;;;;17.08;100.00;99305.35;1747181;79;20937;-72
2021/05/19 09:17:31;;;;;;;3.33;1.40;;;;;;;17.20;100.00;99306.02;1762710;79;21624;-75
2021/05/19 09:20:13;;;;;;;;;;;;;;;17.29;100.00;99298.45;1753422;80;21091;-73
2021/05/19 09:22:45;;;;;;;6.60;1.33;;;;;;;17.34;100.00;99300.33;1758234;79;20277;-77
2021/05/19 09:25:26;;;;;;;2.87;1.20;;;;;;;17.36;100.00;99302.20;1749805;79;21025;-70
2021/05/19 09:27:58;;;;;;;3.00;1.23;;;;;;;17.60;100.00;99303.44;1747904;78;21658;-74
2021/05/19 09:30:42;;;;;;;3.87;1.40;;;;;;;17.90;100.00;99302.09;1756419;79;20986;-71
2021/05/19 09:33:18;;;;;;;5.43;2.40;;;;;;;18.22;100.00;99301.50;1743317;79;21341;-71
2021/05/19 09:35:46;;;;;;;5.13;2.20;;;;;;;18.56;100.00;99301.13;1738059;80;20993;-71
2021/05/19 09:38:30;;;;;;;5.47;1.87;;;;;;;18.82;100.00;99305.17;1750167;80;20949;-73
2021/05/19 09:41:24;;;;;;;5.97;1.80;;;;;;;18.69;100.00;99303.27;1743857;81;21064;-72
2021/05/19 09:43:57;;;;;;;4.63;1.53;;;;;;;18.54;100.00;99310.34;1759515;79;21563;-74
2021/05/19 09:49:21;;;;;;;4.40;1.83;;;;;;;18.24;100.00;99308.62;1758964;79;21395;-71
2021/05/19 09:51:54;;;;;;;6.42;2.08;;;;;;;18.36;100.00;99306.30;1768141;79;21198;-70
2021/05/19 09:54:33;;;;;;;4.30;2.27;;;;;;;18.65;100.00;99294.28;1753858;79;21448;-70
2021/05/19 09:57:02;;;;;;;4.60;1.93;;;;;;;18.94;100.00;99294.66;1759404;79;21020;-71
2021/05/19 09:59:29;;;;;;;5.70;2.13;;;;;;;19.08;100.00;99304.70;1738967;80;21103;-70
2021/05/19 10:01:57;;;;;;;5.33;2.10;;;;;;;18.90;100.00;99318.67;1768712;79;21971;-71
2021/05/19 10:04:34;;;;;;;5.73;2.73;;;;;;;18.74;100.00;99310.43;1749681;79;21639;-71
2021/05/19 10:07:02;;;;;;;5.50;2.63;;;;;;;18.55;100.00;99308.75;1765803;79;21733;-72
2021/05/19 10:09:29;;;;;;;5.63;2.77;;;;;;;18.32;100.00;99320.53;1724464;80;21001;-72
2021/05/19 10:11:56;;;;;;;5.50;3.00;;;;;;;18.15;100.00;99319.39;1750623;79;21462;-78
2021/05/19 10:14:23;;;;;;;3.83;2.17;;;;;;;17.94;100.00;99317.67;1749914;79;21052;-74
2021/05/19 10:17:09;;;;;;;4.33;2.37;;;;;;;17.78;100.00;99321.27;1753242;79;21120;-73
2021/05/19 10:19:44;;;;;;;6.83;3.33;;;;;;;17.52;100.00;99321.03;1749602;80;21106;-75
2021/05/19 10:22:13;;;;;;;5.37;2.60;;;;;;;17.31;100.00;99317.94;1755576;79;21561;-74
2021/05/19 10:24:54;;;;;;;5.13;2.60;;;;;;;17.30;100.00;99323.73;1749248;79;20933;-76
2021/05/19 10:27:20;;;;;;;3.87;1.97;;;;;;;17.38;100.00;99322.48;1756621;79;21669;-73
2021/05/19 10:29:53;;;;;;;5.37;2.33;;;;;;;17.47;100.00;99314.41;1751687;79;21186;-74
2021/05/19 10:32:31;;;;;;;3.00;1.70;;;;;;;17.59;100.00;99315.56;1749233;79;21170;-79
2021/05/19 10:35:00;;;;;;;5.60;1.90;;;;;;;17.70;100.00;99315.91;1751510;79;20992;-73
2021/05/19 10:37:35;;;;;;;3.07;1.60;;;;;;;17.76;100.00;99347.86;1761888;79;21425;-72
2021/05/19 10:40:18;;;;;;;4.20;1.70;;;;;;;17.61;100.00;99337.96;1751626;79;20972;-72
2021/05/19 10:43:01;;;;;;;2.37;1.53;;;;;;;17.06;100.00;99346.16;1749649;79;21319;-71
2021/05/19 10:45:28;;;;;;;5.47;2.13;;;;;;;16.49;100.00;99332.84;1754886;79;21092;-71
2021/05/19 10:47:55;;;;;;;4.67;2.20;;;;;;;16.00;100.00;99333.50;1746796;79;21101;-71
2021/05/19 10:50:36;;;;;;;5.10;1.90;;;;;;;15.71;100.00;99334.10;1760444;78;21329;-71
2021/05/19 10:58:53;;;;;;;3.27;1.10;;;;;;;16.04;100.00;99330.66;1755789;79;21097;-77
2021/05/19 11:01:48;;;;;;;1.92;1.07;;;;;;;16.38;100.00;99337.17;1749646;79;21135;-77
2021/05/19 11:04:17;;;;;;;3.20;1.00;;;;;;;16.63;100.00;99323.55;1752078;79;21196;-76
2021/05/19 11:07:04;;;;;;;3.17;0.83;;;;;;;16.88;100.00;99325.69;1757097;79;21017;-80
2021/05/19 11:09:34;;;;;;;3.57;0.80;;;;;;;17.13;100.00;99312.00;1750578;79;21031;-76
2021/05/19 11:12:26;;;;;;;2.20;1.03;;;;;;;17.42;100.00;99313.03;1728414;81;21078;-73
2021/05/19 11:15:05;;;;;;;2.63;1.23;;;;;;;17.57;100.00;99307.89;1788887;78;20995;-76
2021/05/19 11:18:04;;;;;;;2.60;0.90;;;;;;;17.77;100.00;99295.44;1796983;78;20955;-70
2021/05/19 11:20:07;;;;;;;2.30;1.03;;;;;;;18.00;100.00;99307.44;1782795;78;21332;-74
2021/05/19 11:22:36;;;;;;;2.93;1.20;;;;;;;18.19;100.00;99307.81;1792750;78;21979;-77
2021/05/19 11:25:04;;;;;;;1.87;1.10;;;;;;;18.30;100.00;99297.58;1793343;78;21842;-78
2021/05/19 11:27:35;;;;;;;2.63;1.30;;;;;;;18.33;100.00;99296.25;1793278;78;21026;-70
2021/05/19 11:30:05;;;;;;;2.12;1.10;;;;;;;18.39;100.00;99300.52;1791186;78;21552;-75
2021/05/19 11:32:34;;;;;;;3.27;1.10;;;;;;;18.41;100.00;99304.48;1791833;78;21129;-73
2021/05/19 11:35:20;;;;;;;1.37;0.67;;;;;;;18.39;100.00;99304.47;1783730;78;21481;-72
2021/05/19 11:37:59;;;;;;;2.03;0.70;;;;;;;18.27;100.00;99306.53;1793352;78;22470;-72
2021/05/19 11:40:50;;;;;;;3.30;1.20;;;;;;;18.19;100.00;99305.17;1787914;78;21011;-74
2021/05/19 11:43:21;;;;;;;1.57;0.88;;;;;;;18.14;100.00;99310.41;1748182;79;21168;-74
2021/05/19 11:45:58;;;;;;;2.73;0.60;;;;;;;18.07;100.00;99314.61;1727724;81;21057;-75
2021/05/19 11:48:28;;;;;;;1.57;0.87;;;;;;;18.08;100.00;99316.72;1793499;78;21105;-74
2021/05/19 11:50:55;;;;;;;2.23;1.43;;;;;;;18.17;100.00;99305.94;1774624;78;21112;-71
2021/05/19 11:53:22;;;;;;;2.00;0.70;;;;;;;18.27;100.00;99294.13;1783893;78;21112;-73
2021/05/19 11:55:51;;;;;;;2.73;0.80;;;;;;;18.39;100.00;99292.59;1787594;78;22337;-71
2021/05/19 11:58:32;;;;;;;6.40;0.70;;;;;;;18.59;100.00;99288.70;1783375;78;21043;-72
2021/05/19 12:01:06;;;;;;;1.52;0.68;;;;;;;18.65;100.00;99289.00;1777096;78;21380;-80
2021/05/19 12:03:35;;;;;;;1.60;0.53;;;;;;;18.60;100.00;99272.34;1794897;78;21076;-76
2021/05/19 12:06:08;;;;;;;1.43;0.50;;;;;;;18.57;100.00;99267.60;1782459;78;21471;-74
2021/05/19 12:08:39;;;;;;;1.37;0.40;;;;;;;18.54;100.00;99268.91;1787065;78;21088;-75
2021/05/19 12:11:12;;;;;;;1.63;0.60;;;;;;;18.45;100.00;99267.83;1787391;78;21011;-76
2021/05/19 12:13:42;;;;;;;1.93;0.60;;;;;;;18.36;100.00;99258.80;1791473;78;21023;-69
2021/05/19 12:16:18;;;;;;;3.20;0.70;;;;;;;18.35;100.00;99267.78;1783993;78;22098;-77
2021/05/19 12:19:18;;;;;;;2.40;0.60;;;;;;;18.33;100.00;99257.47;1785439;77;21641;-74
2021/05/19 12:21:54;;;;;;;1.17;0.50;;;;;;;18.33;100.00;99270.66;1788600;78;21122;-73
2021/05/19 12:24:28;;;;;;;2.63;0.53;;;;;;;18.27;100.00;99263.80;1776942;78;21441;-75
2021/05/19 12:26:56;;;;;;;2.80;0.80;;;;;;;18.19;100.00;99261.13;1779580;78;21008;-73
2021/05/19 12:29:36;;;;;;;2.30;0.60;;;;;;;18.10;100.00;99253.41;1787622;78;21044;-70
2021/05/19 12:32:20;;;;;;;2.30;0.97;;;;;;;18.07;100.00;99251.81;1787448;78;21942;-74
2021/05/19 12:35:08;;;;;;;3.47;0.90;;;;;;;18.05;100.00;99254.72;1790836;78;21079;-72
2021/05/19 12:37:51;;;;;;;2.53;0.90;;;;;;;18.20;100.00;99247.41;1781728;77;21821;-74
2021/05/19 12:40:20;;;;;;;1.70;0.60;;;;;;;18.54;100.00;99247.79;1780867;78;20979;-74
2021/05/19 12:43:03;;;;;;;4.07;1.20;;;;;;;18.87;100.00;99247.11;1786552;78;21020;-74
2021/05/19 12:45:41;;;;;;;3.13;1.00;;;;;;;18.89;100.00;99241.81;1781337;78;21062;-74
2021/05/19 12:48:10;;;;;;;3.47;1.37;;;;;;;18.89;100.00;99242.34;1786479;78;21513;-71
2021/05/19 12:50:58;;;;;;;3.20;1.10;;;;;;;18.75;100.00;99236.77;1789794;78;21087;-73
2021/05/19 12:53:45;;;;;;;4.03;1.30;;;;;;;18.71;100.00;99237.84;1791292;78;21544;-70
2021/05/19 12:56:24;;;;;;;4.57;1.10;;;;;;;18.68;100.00;99237.54;1782864;78;21089;-71
2021/05/19 12:59:09;;;;;;;3.17;1.03;;;;;;;18.63;100.00;99223.78;1785446;78;21525;-71
2021/05/19 13:01:45;;;;;;;2.27;0.90;;;;;;;18.51;100.00;99215.84;1785658;78;20920;-73
2021/05/19 13:04:12;;;;;;;3.00;1.40;;;;;;;18.46;100.00;99208.72;1783678;78;21538;-70
2021/05/19 13:06:39;;;;;;;3.00;1.57;;;;;;;18.48;100.00;99208.70;1788912;78;20940;-70
2021/05/19 13:09:08;;;;;;;3.30;1.47;;;;;;;18.44;100.00;99214.23;1787284;78;21018;-72
2021/05/19 13:11:50;;;;;;;2.67;1.30;;;;;;;18.35;100.00;99218.44;1784263;78;21070;-72
2021/05/19 13:14:45;;;;;;;3.60;1.10;;;;;;;18.34;100.00;99218.72;1782599;78;22293;-75
2021/05/19 13:17:48;;;;;;;3.33;1.70;;;;;;;18.24;100.00;99214.97;1783749;78;21030;-72
2021/05/19 13:20:21;;;;;;;5.87;1.30;;;;;;;18.19;100.00;99215.49;1783152;78;21062;-70
2021/05/19 13:22:59;;;;;;;5.10;1.70;;;;;;;18.14;100.00;99208.86;1790060;78;21919;-73
2021/05/19 13:25:26;;;;;;;3.90;1.63;;;;;;;18.12;100.00;99209.13;1784596;78;21118;-70
2021/05/19 13:27:53;;;;;;;4.73;1.20;;;;;;;18.09;100.00;99222.03;1749453;80;20967;-70
2021/05/19 13:30:24;;;;;;;1.97;0.70;;;;;;;17.98;100.00;99231.21;1711093;81;20994;-72
2021/05/19 13:38:10;;;;;;;1.10;0.40;;;;;;;17.20;100.00;99253.87;1716369;81;20314;-72
2021/05/19 13:40:37;;;;;;;1.30;0.40;;;;;;;16.80;100.00;99239.28;1745018;80;21081;-76
2021/05/19 13:43:05;;;;;;;2.97;0.40;;;;;;;16.50;100.00;99253.67;1735487;80;20974;-72
2021/05/19 13:45:31;;;;;;;2.13;0.50;;;;;;;16.24;100.00;99242.05;1739126;80;21138;-75
2021/05/19 13:47:58;;;;;;;1.80;0.40;;;;;;;16.01;100.00;99241.77;1709502;82;21092;-73
2021/05/19 13:50:25;;;;;;;3.87;0.53;;;;;;;15.79;100.00;99250.92;1735341;80;21017;-74
2021/05/19 13:52:52;;;;;;;2.33;0.97;;;;;;;15.56;100.00;99257.66;1737517;80;20986;-73
2021/05/19 13:55:18;;;;;;;9.00;1.40;;;;;;;15.34;100.00;99268.08;1771584;80;21009;-71
2021/05/19 14:27:19;;;;;;;6.47;1.63;;;;;;;12.70;100.00;99241.73;1706956;81;20982;-68
2021/05/19 14:29:46;;;;;;;4.70;1.43;;;;;;;12.79;100.00;99241.19;1714092;81;21164;-69
2021/05/19 14:32:14;;;;;;;5.57;1.60;;;;;;;12.89;100.00;99236.73;1716626;81;21057;-67
2021/05/19 14:34:41;;;;;;;4.20;1.40;;;;;;;12.93;100.00;99233.17;1665722;81;21899;-68
2021/05/19 15:01:29;;;;;;;4.30;1.63;;;;;;;13.57;100.00;99214.58;1703014;81;21072;-70
2021/05/19 15:03:56;;;;;;;5.67;1.87;;;;;;;13.70;100.00;99206.48;1713764;81;20969;-74
2021/05/19 15:06:23;;;;;;;4.77;1.40;;;;;;;13.81;100.00;99210.12;1718607;81;21475;-70
2021/05/19 15:08:50;;;;;;;4.00;1.37;;;;;;;13.82;100.00;99219.05;1712401;81;21661;-72
2021/05/19 15:11:17;;;;;;;4.40;1.80;;;;;;;13.78;100.00;99219.22;1717720;81;21061;-71
2021/05/19 15:13:44;;;;;;;4.87;1.73;;;;;;;13.70;100.00;99227.95;1719007;81;21088;-71
2021/05/19 15:16:10;;;;;;;6.00;1.93;;;;;;;13.59;100.00;99231.64;1716673;81;21677;-71
2021/05/19 15:18:37;;;;;;;3.30;1.67;;;;;;;13.51;100.00;99228.56;1767672;79;21908;-72
2021/05/19 15:21:06;;;;;;;5.20;1.53;;;;;;;13.34;100.00;99235.00;1786221;78;21501;-69
2021/05/19 15:23:32;;;;;;;4.30;1.63;;;;;;;13.18;100.00;99227.23;1786266;78;21054;-69
2021/05/19 15:25:59;;;;;;;5.37;1.30;;;;;;;13.07;100.00;99230.66;1787984;78;20916;-70
2021/05/19 15:28:26;;;;;;;8.73;1.90;;;;;;;12.99;100.00;99225.72;1784324;78;21094;-72
2021/05/19 15:30:54;;;;;;;4.67;1.20;;;;;;;12.94;100.00;99217.75;1789761;78;21565;-70
2021/05/19 15:33:22;;;;;;;4.33;1.40;;;;;;;12.90;100.00;99220.81;1777245;78;21128;-70
2021/05/19 15:35:49;;;;;;;4.00;1.50;;;;;;;12.90;100.00;99225.25;1785803;78;21597;-71
2021/05/19 15:38:15;;;;;;;7.73;1.60;;;;;;;12.94;100.00;99216.45;1787254;78;21033;-71
2021/05/19 15:40:42;;;;;;;4.03;1.73;;;;;;;13.02;100.00;99216.13;1782591;78;22058;-70
2021/05/19 15:43:11;;;;;;;3.70;1.67;;;;;;;13.13;100.00;99220.07;1773185;78;20961;-70
2021/05/19 15:45:40;;;;;;;5.37;1.87;;;;;;;13.28;100.00;99217.05;1782070;78;20991;-69
2021/05/19 15:48:07;;;;;;;5.63;1.73;;;;;;;13.40;100.00;99215.75;1784226;78;20930;-71